Verona Villafranca Airport

Airport
ICAO code: 
LIPX
IATA Code: 
VRN
Summary
ICAO Region: 
EUR
Territory: 
Location: 
Villafranca di Verona, Veneto
Serving: 
Verona
Elevation: 
240 ft
Coordinates: 
Aerial View: 
45° 23' 50.439" N, 10° 53' 17.502" E
Metar
Observation
LIPX 042350Z 20003KT 160V230 9999 BKN035 04/03 Q1004
Station
Verona / Villafranca
Date/Time
2021-12-04 23:50:00
Wind direction
200°
Wind speed
03 kts
Lowest cloud amount
broken clouds
Temperature
4°C
Dew point
3°C
Humidity
93%
QNH
1004 hPa
Weather condition
n/a

Verona Airport, also known as Valerio Catullo Villafranca Airport or simply Verona-Villafranca Airport is an airport located 2.7 nm southwest of Verona, Italy.

Climatology

Humid “subtropical” climate influenced by the Mediterranean climate of the Italian Lakes (Köppen climate classification Cfa/Csa) - characterized by hot, humid summers and cool winters. Significant amounts of precipitation occur in all seasons in most areas. Winter rainfall (and sometimes snowfall) is associated with large storms that the westerlies steer from west to east. Most summer rainfall occurs during thunderstorms. High relative humidity frequently causes fog mainly from dusk until late morning.

Runways

Designator Length Width Surface Rops
4/22 3068 45 ASP Yes/Yes
Airport map: 
Aerial View: 

SKYbrary Partners:

Safety knowledge contributed by: